Time;durP1;ratioP1;P1;durP2;ratioP2;P2;SDS_P1;SDS_P2;PMS_P1;PMS_P2;Temp;Humidity;BMP_temperature;BMP_pressure;BME280_temperature;BME280_humidity;BME280_pressure;Samples;Min_cycle;Max_cycle;Signal;HPM_P1;HPM_P2
2021/06/14 00:02:04;;;;;;;7.38;3.20;;;;;;;;;;5027742;28;20470;-59
2021/06/14 00:04:31;;;;;;;6.78;3.58;;;;;;;;;;5028001;28;20037;-58
2021/06/14 00:06:56;;;;;;;7.53;3.78;;;;;;;;;;5026338;28;20029;-61
2021/06/14 00:09:24;;;;;;;5.32;3.40;;;;;;;;;;5028005;28;20021;-60
2021/06/14 00:11:50;;;;;;;7.72;3.22;;;;;;;;;;5027820;28;20029;-59
2021/06/14 00:14:15;;;;;;;4.60;3.17;;;;;;;;;;5043184;28;20524;-60
2021/06/14 00:16:40;;;;;;;6.60;3.53;;;;;;;;;;5026769;28;20112;-58
2021/06/14 00:19:06;;;;;;;5.35;3.28;;;;;;;;;;5027554;28;20474;-60
2021/06/14 00:21:32;;;;;;;6.70;3.65;;;;;;;;;;5026951;28;20044;-59
2021/06/14 00:23:57;;;;;;;5.97;3.35;;;;;;;;;;5027582;28;20051;-61
2021/06/14 00:26:22;;;;;;;6.78;3.60;;;;;;;;;;5027990;28;20029;-58
2021/06/14 00:28:48;;;;;;;6.22;3.50;;;;;;;;;;5027174;28;20039;-58
2021/06/14 00:31:13;;;;;;;6.93;3.90;;;;;;;;;;5027123;28;20065;-57
2021/06/14 00:33:38;;;;;;;6.03;3.20;;;;;;;;;;5027866;28;20026;-59
2021/06/14 00:36:04;;;;;;;6.35;3.50;;;;;;;;;;5027564;28;20474;-59
2021/06/14 00:38:30;;;;;;;6.43;3.90;;;;;;;;;;5026055;28;20068;-58
2021/06/14 00:40:55;;;;;;;5.82;3.30;;;;;;;;;;5014080;28;20049;-60
2021/06/14 00:43:20;;;;;;;6.38;3.40;;;;;;;;;;5027576;28;20030;-59
2021/06/14 00:45:47;;;;;;;7.20;3.30;;;;;;;;;;5027974;28;20397;-58
2021/06/14 00:48:13;;;;;;;5.80;3.25;;;;;;;;;;5026760;28;20026;-60
2021/06/14 00:50:49;;;;;;;6.43;3.20;;;;;;;;;;5027200;28;20014;-58
2021/06/14 00:53:21;;;;;;;5.53;3.13;;;;;;;;;;5027868;28;20072;-58
2021/06/14 00:55:46;;;;;;;7.13;3.10;;;;;;;;;;5027518;28;20036;-60
2021/06/14 00:58:12;;;;;;;5.68;3.30;;;;;;;;;;5031134;28;20478;-59
2021/06/14 01:00:37;;;;;;;5.80;3.33;;;;;;;;;;5030750;28;20042;-59
2021/06/14 01:03:03;;;;;;;5.03;3.17;;;;;;;;;;5031532;28;20029;-59
2021/06/14 01:05:29;;;;;;;5.70;3.17;;;;;;;;;;5043475;23;20016;-62
2021/06/14 01:07:55;;;;;;;5.32;2.90;;;;;;;;;;5048854;28;20033;-62
2021/06/14 01:10:20;;;;;;;6.25;3.63;;;;;;;;;;5051229;28;20021;-62
2021/06/14 01:13:05;;;;;;;4.72;2.80;;;;;;;;;;5045539;28;20039;-59
2021/06/14 01:15:31;;;;;;;4.68;3.13;;;;;;;;;;5049289;28;20020;-60
2021/06/14 01:17:59;;;;;;;5.95;3.33;;;;;;;;;;5069278;28;20464;-62
2021/06/14 01:20:36;;;;;;;6.22;2.58;;;;;;;;;;5049934;28;20511;-59
2021/06/14 01:23:31;;;;;;;6.07;2.85;;;;;;;;;;5056818;28;20090;-62
2021/06/14 01:26:07;;;;;;;5.95;3.00;;;;;;;;;;5041774;28;20374;-61
2021/06/14 01:28:32;;;;;;;4.93;2.88;;;;;;;;;;5032528;28;20299;-62
2021/06/14 01:30:58;;;;;;;4.72;2.80;;;;;;;;;;5053562;28;20058;-59
2021/06/14 01:33:25;;;;;;;4.25;2.63;;;;;;;;;;5068378;28;20121;-60
2021/06/14 01:35:56;;;;;;;4.85;2.55;;;;;;;;;;5071605;28;20036;-62
2021/06/14 01:38:22;;;;;;;5.25;3.15;;;;;;;;;;5083233;28;20380;-60
2021/06/14 01:40:49;;;;;;;4.50;2.70;;;;;;;;;;5069551;28;20060;-60
2021/06/14 01:43:15;;;;;;;5.78;3.25;;;;;;;;;;5062835;28;20033;-62
2021/06/14 01:45:42;;;;;;;4.97;3.00;;;;;;;;;;5058753;28;20121;-61
2021/06/14 01:48:08;;;;;;;5.10;3.30;;;;;;;;;;5049915;28;20025;-59
2021/06/14 01:50:33;;;;;;;4.28;2.80;;;;;;;;;;5066022;28;20444;-62
2021/06/14 01:52:59;;;;;;;4.05;2.45;;;;;;;;;;5069911;28;20032;-62
2021/06/14 01:55:24;;;;;;;4.82;2.88;;;;;;;;;;5063785;28;20029;-60
2021/06/14 01:57:53;;;;;;;4.72;2.72;;;;;;;;;;5085776;28;20036;-62
2021/06/14 02:00:22;;;;;;;4.60;2.38;;;;;;;;;;5065790;28;20066;-59
2021/06/14 02:02:47;;;;;;;4.50;2.72;;;;;;;;;;5051134;28;20040;-61
2021/06/14 02:05:13;;;;;;;4.65;2.58;;;;;;;;;;5049986;28;20025;-62
2021/06/14 02:07:40;;;;;;;5.18;2.80;;;;;;;;;;5049998;28;20046;-62
2021/06/14 02:10:06;;;;;;;4.80;2.50;;;;;;;;;;5065722;28;20037;-62
2021/06/14 02:12:31;;;;;;;4.88;2.72;;;;;;;;;;5069153;28;20047;-62
2021/06/14 02:14:56;;;;;;;4.40;2.83;;;;;;;;;;5051828;28;20020;-62
2021/06/14 02:17:24;;;;;;;4.82;2.45;;;;;;;;;;5066456;28;20020;-62
2021/06/14 02:19:49;;;;;;;5.68;3.00;;;;;;;;;;5078673;28;20103;-62
2021/06/14 02:22:16;;;;;;;4.70;2.80;;;;;;;;;;5048541;28;20127;-58
2021/06/14 02:24:41;;;;;;;5.13;2.28;;;;;;;;;;5059125;28;20535;-62
2021/06/14 02:27:08;;;;;;;5.22;2.50;;;;;;;;;;5047347;28;20056;-62
2021/06/14 02:29:33;;;;;;;4.72;2.38;;;;;;;;;;5058820;28;20028;-65
2021/06/14 02:31:58;;;;;;;4.35;2.50;;;;;;;;;;5061386;28;20071;-63
2021/06/14 02:34:24;;;;;;;3.63;2.55;;;;;;;;;;5069699;28;20027;-61
2021/06/14 02:36:49;;;;;;;5.03;2.78;;;;;;;;;;5066422;28;20024;-63
2021/06/14 02:39:15;;;;;;;4.00;2.60;;;;;;;;;;5051556;28;20040;-60
2021/06/14 02:41:42;;;;;;;4.70;2.70;;;;;;;;;;5067773;28;20754;-59
2021/06/14 02:44:07;;;;;;;5.07;2.70;;;;;;;;;;5068144;28;20032;-58
2021/06/14 02:46:34;;;;;;;3.90;2.42;;;;;;;;;;5063525;28;20208;-61
2021/06/14 02:49:00;;;;;;;4.75;2.67;;;;;;;;;;5047820;28;20055;-64
2021/06/14 02:51:25;;;;;;;4.40;2.60;;;;;;;;;;5066213;28;20025;-59
2021/06/14 02:54:03;;;;;;;4.00;2.42;;;;;;;;;;5051549;28;20025;-60
2021/06/14 02:56:28;;;;;;;4.10;2.60;;;;;;;;;;5040739;28;20064;-60
2021/06/14 02:58:54;;;;;;;4.40;2.70;;;;;;;;;;5047881;28;20107;-62
2021/06/14 03:01:19;;;;;;;5.05;2.85;;;;;;;;;;5055771;28;20121;-60
2021/06/14 03:03:44;;;;;;;4.93;2.80;;;;;;;;;;5067922;28;20051;-60
2021/06/14 03:06:12;;;;;;;4.25;2.70;;;;;;;;;;5068681;28;20506;-65
2021/06/14 03:08:37;;;;;;;4.03;2.70;;;;;;;;;;5055304;28;20020;-58
2021/06/14 03:11:02;;;;;;;3.65;2.35;;;;;;;;;;5038368;28;20020;-61
2021/06/14 03:13:28;;;;;;;4.60;2.95;;;;;;;;;;5065672;28;20048;-60
2021/06/14 03:15:54;;;;;;;4.20;2.58;;;;;;;;;;5034170;28;20051;-61
2021/06/14 03:18:19;;;;;;;4.15;2.45;;;;;;;;;;5066203;28;20111;-61
2021/06/14 03:20:45;;;;;;;3.47;2.50;;;;;;;;;;5058394;28;20056;-62
2021/06/14 03:23:13;;;;;;;4.35;2.97;;;;;;;;;;5067724;28;20043;-64
2021/06/14 03:25:38;;;;;;;4.43;2.55;;;;;;;;;;5065852;28;20103;-61
2021/06/14 03:28:04;;;;;;;4.20;2.70;;;;;;;;;;5046180;28;20100;-61
2021/06/14 03:30:30;;;;;;;5.03;2.90;;;;;;;;;;5047818;28;20376;-65
2021/06/14 03:32:55;;;;;;;3.85;2.30;;;;;;;;;;5055871;28;20036;-61
2021/06/14 03:35:21;;;;;;;4.55;2.63;;;;;;;;;;5040118;28;20100;-61
2021/06/14 03:37:46;;;;;;;3.83;2.33;;;;;;;;;;5065397;28;20024;-62
2021/06/14 03:40:12;;;;;;;4.47;2.80;;;;;;;;;;5067690;28;20056;-61
2021/06/14 03:42:38;;;;;;;3.22;2.15;;;;;;;;;;5061688;28;20032;-65
2021/06/14 03:45:05;;;;;;;4.40;2.25;;;;;;;;;;5054376;28;20028;-64
2021/06/14 03:47:30;;;;;;;5.20;2.72;;;;;;;;;;5066652;28;20498;-59
2021/06/14 03:49:55;;;;;;;3.67;2.50;;;;;;;;;;5066116;28;20055;-62
2021/06/14 03:52:21;;;;;;;5.25;2.60;;;;;;;;;;5064626;28;20066;-65
2021/06/14 03:54:46;;;;;;;3.72;2.33;;;;;;;;;;5068084;28;20024;-61
2021/06/14 03:57:11;;;;;;;4.03;2.65;;;;;;;;;;5051903;28;20042;-61
2021/06/14 03:59:37;;;;;;;3.63;2.20;;;;;;;;;;5047197;28;20469;-59
2021/06/14 04:02:02;;;;;;;3.22;2.38;;;;;;;;;;5057746;28;20029;-60
2021/06/14 04:04:45;;;;;;;3.70;2.53;;;;;;;;;;5047870;28;20082;-60
2021/06/14 04:07:10;;;;;;;3.30;2.50;;;;;;;;;;5046151;28;20060;-62
2021/06/14 04:09:36;;;;;;;3.47;2.08;;;;;;;;;;5063754;28;20039;-62
2021/06/14 04:12:02;;;;;;;3.72;2.33;;;;;;;;;;5062893;28;20094;-65
2021/06/14 04:14:27;;;;;;;3.97;2.50;;;;;;;;;;5047361;28;20100;-64
2021/06/14 04:16:53;;;;;;;4.78;2.63;;;;;;;;;;5056680;28;20112;-60
2021/06/14 04:19:18;;;;;;;4.25;2.70;;;;;;;;;;5056086;28;20052;-61
2021/06/14 04:21:43;;;;;;;3.70;2.53;;;;;;;;;;5065118;28;20389;-64
2021/06/14 04:24:09;;;;;;;4.70;2.40;;;;;;;;;;5067542;28;20511;-60
2021/06/14 04:26:34;;;;;;;4.35;2.70;;;;;;;;;;5061407;28;20400;-61
2021/06/14 04:29:00;;;;;;;4.00;2.78;;;;;;;;;;5067319;28;20035;-62
2021/06/14 04:31:25;;;;;;;3.90;2.67;;;;;;;;;;5060768;28;20404;-61
2021/06/14 04:33:51;;;;;;;3.63;2.42;;;;;;;;;;5071221;28;20074;-59
2021/06/14 04:36:16;;;;;;;4.03;2.72;;;;;;;;;;5068043;28;20036;-64
2021/06/14 04:38:41;;;;;;;4.60;2.50;;;;;;;;;;5067415;28;20060;-58
2021/06/14 04:41:07;;;;;;;4.32;2.83;;;;;;;;;;5057388;28;20037;-62
2021/06/14 04:43:32;;;;;;;3.55;2.45;;;;;;;;;;5051795;28;20546;-62
2021/06/14 04:45:57;;;;;;;3.10;2.40;;;;;;;;;;5063485;28;20024;-61
2021/06/14 04:48:23;;;;;;;3.90;2.60;;;;;;;;;;5070642;28;20059;-61
2021/06/14 04:50:48;;;;;;;4.53;2.50;;;;;;;;;;5064910;28;20016;-62
2021/06/14 04:53:14;;;;;;;3.33;2.40;;;;;;;;;;5047132;28;20449;-64
2021/06/14 04:55:39;;;;;;;4.43;2.55;;;;;;;;;;5050269;28;20029;-60
2021/06/14 04:58:04;;;;;;;4.68;2.50;;;;;;;;;;5048616;28;20112;-62
2021/06/14 05:00:30;;;;;;;3.92;2.40;;;;;;;;;;5035419;28;21468;-61
2021/06/14 05:02:55;;;;;;;4.20;2.42;;;;;;;;;;5070158;28;20115;-62
2021/06/14 05:05:21;;;;;;;2.72;2.05;;;;;;;;;;5060292;28;20040;-61
2021/06/14 05:07:46;;;;;;;4.35;2.50;;;;;;;;;;5068066;28;20026;-61
2021/06/14 05:10:12;;;;;;;3.90;2.80;;;;;;;;;;5056600;28;20032;-63
2021/06/14 05:12:37;;;;;;;5.35;2.50;;;;;;;;;;5068249;28;20481;-60
2021/06/14 05:15:04;;;;;;;3.50;2.50;;;;;;;;;;5052085;28;20071;-61
2021/06/14 05:17:30;;;;;;;3.60;2.40;;;;;;;;;;5066316;28;20717;-61
2021/06/14 05:19:55;;;;;;;5.25;2.25;;;;;;;;;;5068230;28;20067;-62
2021/06/14 05:22:20;;;;;;;4.30;2.65;;;;;;;;;;5065816;28;20500;-60
2021/06/14 05:24:46;;;;;;;3.30;2.20;;;;;;;;;;5067586;28;20032;-58
2021/06/14 05:27:11;;;;;;;4.32;2.58;;;;;;;;;;5067009;28;20545;-61
2021/06/14 05:29:36;;;;;;;3.72;2.30;;;;;;;;;;5067897;28;20523;-58
2021/06/14 05:32:02;;;;;;;4.40;2.55;;;;;;;;;;5066133;28;20032;-60
2021/06/14 05:34:27;;;;;;;4.35;2.47;;;;;;;;;;5067083;28;20044;-61
2021/06/14 05:36:53;;;;;;;3.85;2.30;;;;;;;;;;5066733;28;20028;-60
2021/06/14 05:39:18;;;;;;;4.38;2.28;;;;;;;;;;5067088;28;20097;-60
2021/06/14 05:41:44;;;;;;;3.33;2.60;;;;;;;;;;5062566;28;20480;-61
2021/06/14 05:44:09;;;;;;;4.40;2.58;;;;;;;;;;5067558;28;20028;-60
2021/06/14 05:46:44;;;;;;;5.03;2.58;;;;;;;;;;5055768;28;20028;-60
2021/06/14 05:49:09;;;;;;;2.60;2.00;;;;;;;;;;5069719;28;20024;-63
2021/06/14 05:51:35;;;;;;;4.13;2.47;;;;;;;;;;5068446;28;20454;-57
2021/06/14 05:54:00;;;;;;;4.60;2.50;;;;;;;;;;5068840;28;20032;-60
2021/06/14 05:56:25;;;;;;;3.28;2.35;;;;;;;;;;5069024;28;20417;-59
2021/06/14 05:58:51;;;;;;;4.03;2.38;;;;;;;;;;5054302;28;20036;-60
2021/06/14 06:01:16;;;;;;;3.90;2.70;;;;;;;;;;5057440;28;20029;-59
2021/06/14 06:03:42;;;;;;;4.68;2.55;;;;;;;;;;5067017;28;20039;-57
2021/06/14 06:06:07;;;;;;;4.70;2.55;;;;;;;;;;5049640;28;20103;-62
2021/06/14 06:08:33;;;;;;;4.35;2.63;;;;;;;;;;5052257;28;20029;-61
2021/06/14 06:10:58;;;;;;;4.40;2.67;;;;;;;;;;5068244;28;20112;-60
2021/06/14 06:13:23;;;;;;;4.32;2.45;;;;;;;;;;5068805;28;20111;-62
2021/06/14 06:15:49;;;;;;;3.95;2.30;;;;;;;;;;5056207;28;20096;-60
2021/06/14 06:18:14;;;;;;;5.03;2.85;;;;;;;;;;5068303;28;20501;-60
2021/06/14 06:20:39;;;;;;;6.45;3.22;;;;;;;;;;5066611;28;20025;-63
2021/06/14 06:23:05;;;;;;;7.43;3.03;;;;;;;;;;5064876;28;20056;-59
2021/06/14 06:25:31;;;;;;;7.50;3.30;;;;;;;;;;5070337;28;20024;-59
2021/06/14 06:27:56;;;;;;;4.85;2.83;;;;;;;;;;5061970;28;20510;-62
2021/06/14 06:30:23;;;;;;;5.10;3.28;;;;;;;;;;5048277;28;20017;-58
2021/06/14 06:32:49;;;;;;;6.35;3.22;;;;;;;;;;5067908;28;20036;-61
2021/06/14 06:35:14;;;;;;;7.35;2.97;;;;;;;;;;5057298;28;20025;-62
2021/06/14 06:37:40;;;;;;;7.07;3.20;;;;;;;;;;5055128;28;20078;-60
2021/06/14 06:40:06;;;;;;;4.28;2.65;;;;;;;;;;5069416;28;20089;-61
2021/06/14 06:42:32;;;;;;;4.90;3.30;;;;;;;;;;5065808;28;20038;-61
2021/06/14 06:44:57;;;;;;;6.50;3.00;;;;;;;;;;5058182;28;20116;-61
2021/06/14 06:47:22;;;;;;;4.57;2.83;;;;;;;;;;5064300;28;20062;-61
2021/06/14 06:49:48;;;;;;;6.95;3.35;;;;;;;;;;5068073;28;20021;-59
2021/06/14 06:52:13;;;;;;;5.88;3.17;;;;;;;;;;5062976;28;20445;-61
2021/06/14 06:54:38;;;;;;;6.22;3.35;;;;;;;;;;5067349;28;20028;-60
2021/06/14 06:57:04;;;;;;;7.57;3.42;;;;;;;;;;5068528;28;20028;-59
2021/06/14 06:59:29;;;;;;;6.57;3.40;;;;;;;;;;5056671;28;20456;-61
2021/06/14 07:01:55;;;;;;;4.72;2.65;;;;;;;;;;5060501;28;20389;-61
2021/06/14 07:04:20;;;;;;;6.20;3.17;;;;;;;;;;5066620;28;20381;-61
2021/06/14 07:06:46;;;;;;;5.38;2.70;;;;;;;;;;5066923;28;20111;-61
2021/06/14 07:09:11;;;;;;;5.18;2.95;;;;;;;;;;5069585;28;20142;-60
2021/06/14 07:11:37;;;;;;;5.80;2.88;;;;;;;;;;5067107;28;20025;-60
2021/06/14 07:14:02;;;;;;;4.75;2.90;;;;;;;;;;5070046;28;20032;-61
2021/06/14 07:16:27;;;;;;;5.97;3.08;;;;;;;;;;5067513;28;20039;-61
2021/06/14 07:18:53;;;;;;;5.40;3.20;;;;;;;;;;5069061;28;20078;-60
2021/06/14 07:21:19;;;;;;;6.45;3.03;;;;;;;;;;5065331;28;20043;-60
2021/06/14 07:23:45;;;;;;;6.15;3.15;;;;;;;;;;5056253;28;20532;-61
2021/06/14 07:26:10;;;;;;;6.88;3.20;;;;;;;;;;5055989;28;20499;-61
2021/06/14 07:28:36;;;;;;;4.47;3.00;;;;;;;;;;5083111;28;20142;-61
2021/06/14 07:31:02;;;;;;;5.82;3.50;;;;;;;;;;5066285;28;20389;-60
2021/06/14 07:33:27;;;;;;;5.03;2.78;;;;;;;;;;5069247;28;20036;-61
2021/06/14 07:35:53;;;;;;;4.18;2.50;;;;;;;;;;5068718;28;20028;-59
2021/06/14 07:38:18;;;;;;;8.55;4.00;;;;;;;;;;5048623;28;20032;-60
2021/06/14 07:40:44;;;;;;;9.68;3.90;;;;;;;;;;5062788;28;20078;-62
2021/06/14 07:43:12;;;;;;;6.90;4.30;;;;;;;;;;5049265;28;20527;-60
2021/06/14 07:45:41;;;;;;;6.20;3.75;;;;;;;;;;5053923;28;20103;-61
2021/06/14 07:48:07;;;;;;;8.23;4.25;;;;;;;;;;5045749;28;20035;-62
2021/06/14 07:50:32;;;;;;;12.13;4.35;;;;;;;;;;5065411;28;20025;-61
2021/06/14 07:52:57;;;;;;;8.93;4.30;;;;;;;;;;5079272;28;20043;-61
2021/06/14 07:55:23;;;;;;;10.52;4.00;;;;;;;;;;5068510;28;20035;-62
2021/06/14 07:57:48;;;;;;;9.48;3.75;;;;;;;;;;5067307;28;20032;-61
2021/06/14 08:00:14;;;;;;;7.10;4.07;;;;;;;;;;5066994;28;20451;-61
2021/06/14 08:02:40;;;;;;;7.43;3.90;;;;;;;;;;5068123;28;20025;-61
2021/06/14 08:05:06;;;;;;;5.47;4.10;;;;;;;;;;5066467;28;20031;-60
2021/06/14 08:07:33;;;;;;;8.20;3.47;;;;;;;;;;5065705;28;20119;-61
2021/06/14 08:10:02;;;;;;;7.15;3.95;;;;;;;;;;5066858;28;20095;-62
2021/06/14 08:12:28;;;;;;;8.70;3.80;;;;;;;;;;5068172;28;20017;-61
2021/06/14 08:14:54;;;;;;;6.95;3.55;;;;;;;;;;5068145;28;20074;-60
2021/06/14 08:17:20;;;;;;;6.68;3.72;;;;;;;;;;5062578;28;20509;-62
2021/06/14 08:25:04;;;;;;;6.32;3.42;;;;;;;;;;5050333;28;20075;-62
2021/06/14 08:27:34;;;;;;;6.15;3.50;;;;;;;;;;5045640;28;20045;-63
2021/06/14 08:30:00;;;;;;;7.82;3.67;;;;;;;;;;5052273;28;20412;-60
2021/06/14 08:32:25;;;;;;;5.55;3.30;;;;;;;;;;5082794;28;20078;-59
2021/06/14 08:34:50;;;;;;;7.93;3.55;;;;;;;;;;5067058;28;20036;-62
2021/06/14 08:37:16;;;;;;;6.90;3.50;;;;;;;;;;5066880;28;20520;-59
2021/06/14 08:39:41;;;;;;;6.63;3.38;;;;;;;;;;5066326;28;20032;-60
2021/06/14 08:42:07;;;;;;;6.60;3.03;;;;;;;;;;5063836;28;20071;-63
2021/06/14 08:44:32;;;;;;;6.68;3.10;;;;;;;;;;5066971;28;20385;-61
2021/06/14 08:46:58;;;;;;;7.38;3.75;;;;;;;;;;5081971;28;20036;-56
2021/06/14 08:49:24;;;;;;;5.20;3.25;;;;;;;;;;5065952;28;20079;-61
2021/06/14 08:51:50;;;;;;;7.00;3.15;;;;;;;;;;5066426;28;20055;-61
2021/06/14 08:54:15;;;;;;;6.53;3.30;;;;;;;;;;5065328;28;20109;-60
2021/06/14 08:56:40;;;;;;;6.40;3.60;;;;;;;;;;5065339;28;20044;-64
2021/06/14 08:59:06;;;;;;;8.52;3.38;;;;;;;;;;5067158;28;20135;-61
2021/06/14 09:01:31;;;;;;;8.20;3.50;;;;;;;;;;5067370;28;20035;-61
2021/06/14 09:03:56;;;;;;;6.68;3.10;;;;;;;;;;5067432;28;20067;-64
2021/06/14 09:06:22;;;;;;;6.25;3.33;;;;;;;;;;5064299;28;20028;-61
2021/06/14 09:08:58;;;;;;;6.80;3.60;;;;;;;;;;5066634;28;20028;-60
2021/06/14 09:11:24;;;;;;;7.80;3.50;;;;;;;;;;5066204;28;20085;-60
2021/06/14 09:13:50;;;;;;;5.07;2.97;;;;;;;;;;5067411;28;20029;-62
2021/06/14 09:16:16;;;;;;;6.15;3.28;;;;;;;;;;5066186;28;20043;-64
2021/06/14 09:18:42;;;;;;;5.05;2.90;;;;;;;;;;5068975;28;20028;-61
2021/06/14 09:21:14;;;;;;;6.18;3.95;;;;;;;;;;5063605;28;20025;-63
2021/06/14 09:24:01;;;;;;;5.45;3.30;;;;;;;;;;5062194;28;20060;-61
2021/06/14 09:26:40;;;;;;;10.38;3.33;;;;;;;;;;5067517;28;20031;-60
2021/06/14 09:29:06;;;;;;;6.53;3.30;;;;;;;;;;5070452;28;20040;-61
2021/06/14 09:31:41;;;;;;;7.75;3.50;;;;;;;;;;5070531;28;20040;-61
2021/06/14 09:34:07;;;;;;;7.45;3.45;;;;;;;;;;5070734;28;20025;-60
2021/06/14 09:36:33;;;;;;;6.60;3.85;;;;;;;;;;5051710;28;20035;-59
2021/06/14 09:39:12;;;;;;;7.20;4.05;;;;;;;;;;5068900;28;20473;-62
2021/06/14 09:41:42;;;;;;;7.55;3.78;;;;;;;;;;5069448;28;20110;-61
2021/06/14 09:44:08;;;;;;;7.60;3.90;;;;;;;;;;5069281;28;20076;-62
2021/06/14 09:46:36;;;;;;;8.65;4.00;;;;;;;;;;5069224;28;20443;-65
2021/06/14 09:49:04;;;;;;;8.65;4.50;;;;;;;;;;5067751;28;20031;-60
2021/06/14 09:51:30;;;;;;;7.43;3.80;;;;;;;;;;5070454;28;20100;-59
2021/06/14 09:53:55;;;;;;;6.15;3.83;;;;;;;;;;5070604;28;20020;-61
2021/06/14 09:56:23;;;;;;;9.20;4.22;;;;;;;;;;5068266;28;20020;-64
2021/06/14 09:58:50;;;;;;;9.38;4.13;;;;;;;;;;5060620;28;20111;-61
2021/06/14 10:01:26;;;;;;;8.70;4.28;;;;;;;;;;5067939;28;20024;-62
2021/06/14 10:03:52;;;;;;;8.48;4.50;;;;;;;;;;5070115;28;20028;-62
2021/06/14 10:06:36;;;;;;;8.52;3.78;;;;;;;;;;5085148;28;20028;-61
2021/06/14 10:09:23;;;;;;;7.85;3.65;;;;;;;;;;5068319;28;20031;-64
2021/06/14 10:11:48;;;;;;;12.93;4.30;;;;;;;;;;5067857;28;20028;-57
2021/06/14 10:14:15;;;;;;;10.50;4.63;;;;;;;;;;5069970;28;20020;-60
2021/06/14 10:16:42;;;;;;;9.57;4.40;;;;;;;;;;5067808;28;20028;-59
2021/06/14 10:19:08;;;;;;;12.63;4.68;;;;;;;;;;5049396;28;20361;-60
2021/06/14 10:21:37;;;;;;;8.32;4.10;;;;;;;;;;5067578;28;20500;-61
2021/06/14 10:24:09;;;;;;;8.50;4.00;;;;;;;;;;5056524;28;20478;-59
2021/06/14 10:26:35;;;;;;;14.52;4.38;;;;;;;;;;5047473;28;20071;-61
2021/06/14 10:29:02;;;;;;;8.13;4.10;;;;;;;;;;5049254;28;20044;-59
2021/06/14 10:31:27;;;;;;;8.73;4.10;;;;;;;;;;5060904;28;20028;-58
2021/06/14 10:33:54;;;;;;;10.07;4.35;;;;;;;;;;5062613;28;20492;-59
2021/06/14 10:36:23;;;;;;;7.13;3.88;;;;;;;;;;5068503;28;20056;-58
2021/06/14 10:38:49;;;;;;;8.95;3.90;;;;;;;;;;5069582;28;20043;-61
2021/06/14 10:41:15;;;;;;;8.00;3.95;;;;;;;;;;5069271;28;20397;-58
2021/06/14 10:43:40;;;;;;;9.10;4.13;;;;;;;;;;5067781;28;20032;-58
2021/06/14 10:46:09;;;;;;;7.57;3.90;;;;;;;;;;5065693;28;20381;-57
2021/06/14 10:48:34;;;;;;;6.78;3.50;;;;;;;;;;5031340;28;20121;-57
2021/06/14 10:51:01;;;;;;;8.63;3.53;;;;;;;;;;5051487;28;20454;-60
2021/06/14 10:53:31;;;;;;;6.57;3.78;;;;;;;;;;5060494;28;20122;-59
2021/06/14 10:55:57;;;;;;;8.32;4.30;;;;;;;;;;5066773;28;20055;-61
2021/06/14 10:58:22;;;;;;;9.77;3.80;;;;;;;;;;5067480;28;20024;-58
2021/06/14 11:01:01;;;;;;;5.90;3.30;;;;;;;;;;5069101;28;20257;-60
2021/06/14 11:03:40;;;;;;;7.72;3.72;;;;;;;;;;5069383;28;20016;-62
2021/06/14 11:06:16;;;;;;;8.40;3.22;;;;;;;;;;5068529;28;20032;-60
2021/06/14 11:08:41;;;;;;;5.43;3.08;;;;;;;;;;5068585;28;20443;-60
2021/06/14 11:11:07;;;;;;;6.43;3.63;;;;;;;;;;5085222;28;20026;-59
2021/06/14 11:13:33;;;;;;;7.50;3.75;;;;;;;;;;5067290;28;20519;-58
2021/06/14 11:16:01;;;;;;;8.70;3.70;;;;;;;;;;5067312;28;20020;-58
2021/06/14 11:18:28;;;;;;;6.68;3.75;;;;;;;;;;5066757;28;20057;-57
2021/06/14 11:21:11;;;;;;;7.30;3.65;;;;;;;;;;5063678;28;20078;-62
2021/06/14 11:23:37;;;;;;;6.38;3.63;;;;;;;;;;5061647;28;20025;-61
2021/06/14 11:26:03;;;;;;;9.30;4.15;;;;;;;;;;5069088;28;20020;-62
2021/06/14 11:28:29;;;;;;;7.30;3.70;;;;;;;;;;5066724;28;20370;-62
2021/06/14 11:30:55;;;;;;;6.80;3.25;;;;;;;;;;5069150;28;20465;-57
2021/06/14 11:33:26;;;;;;;4.97;3.40;;;;;;;;;;5067787;28;20035;-56
2021/06/14 11:35:52;;;;;;;8.48;3.58;;;;;;;;;;5069496;28;20388;-57
2021/06/14 11:38:19;;;;;;;7.43;3.47;;;;;;;;;;5066815;28;20040;-62
2021/06/14 11:40:57;;;;;;;5.60;2.90;;;;;;;;;;5082959;28;20024;-62
2021/06/14 11:43:23;;;;;;;6.50;3.40;;;;;;;;;;5082628;28;20461;-58
2021/06/14 11:45:50;;;;;;;9.68;3.70;;;;;;;;;;5068061;28;20206;-62
2021/06/14 11:48:26;;;;;;;5.75;3.42;;;;;;;;;;5067134;28;20020;-59
2021/06/14 11:51:07;;;;;;;6.10;3.10;;;;;;;;;;5071797;28;20021;-58
2021/06/14 11:53:42;;;;;;;;;;;;;;;;;;5060153;28;20031;-59
2021/06/14 11:56:12;;;;;;;7.68;3.10;;;;;;;;;;5067890;28;20284;-57
2021/06/14 11:58:40;;;;;;;6.97;3.20;;;;;;;;;;5065773;28;20024;-59
2021/06/14 12:01:06;;;;;;;7.68;3.28;;;;;;;;;;5067282;28;20172;-58
2021/06/14 12:03:31;;;;;;;5.95;2.90;;;;;;;;;;5067988;28;20024;-62
2021/06/14 12:05:56;;;;;;;5.75;3.25;;;;;;;;;;5067554;28;20047;-61
2021/06/14 12:08:23;;;;;;;5.18;3.50;;;;;;;;;;5067263;28;20020;-61
2021/06/14 12:10:54;;;;;;;5.60;3.30;;;;;;;;;;5067699;28;20013;-58
2021/06/14 12:13:19;;;;;;;6.50;2.83;;;;;;;;;;5067166;28;20020;-59
2021/06/14 12:15:47;;;;;;;7.85;3.58;;;;;;;;;;5065181;28;20292;-62
2021/06/14 12:18:13;;;;;;;6.82;3.35;;;;;;;;;;5066976;28;20034;-60
2021/06/14 12:20:39;;;;;;;5.53;3.00;;;;;;;;;;5068551;28;20025;-62
2021/06/14 12:23:15;;;;;;;6.10;3.10;;;;;;;;;;5067622;28;20103;-60
2021/06/14 12:25:44;;;;;;;5.93;3.25;;;;;;;;;;5063797;28;20028;-58
2021/06/14 12:28:13;;;;;;;4.45;2.88;;;;;;;;;;5065636;28;20029;-55
2021/06/14 12:30:41;;;;;;;4.03;2.88;;;;;;;;;;5066381;28;20570;-62
2021/06/14 12:33:06;;;;;;;6.60;2.90;;;;;;;;;;5067187;28;20028;-62
2021/06/14 12:35:32;;;;;;;5.45;3.17;;;;;;;;;;5047748;28;20032;-57
2021/06/14 12:37:57;;;;;;;5.18;3.20;;;;;;;;;;5066871;28;20031;-57
2021/06/14 12:40:26;;;;;;;6.07;3.25;;;;;;;;;;5048978;28;20035;-61
2021/06/14 12:42:56;;;;;;;5.53;3.10;;;;;;;;;;5067929;28;20024;-60
2021/06/14 12:45:21;;;;;;;4.45;2.97;;;;;;;;;;5065368;28;20129;-59
2021/06/14 12:47:57;;;;;;;5.70;2.83;;;;;;;;;;5062278;28;20509;-56
2021/06/14 12:50:25;;;;;;;5.03;3.33;;;;;;;;;;5065926;28;20017;-58
2021/06/14 12:52:51;;;;;;;5.38;3.10;;;;;;;;;;5069701;28;20031;-57
2021/06/14 12:55:23;;;;;;;4.18;2.88;;;;;;;;;;5062546;28;20100;-62
2021/06/14 12:57:49;;;;;;;6.53;3.10;;;;;;;;;;5051542;28;20035;-63
2021/06/14 13:00:19;;;;;;;4.68;3.25;;;;;;;;;;5068275;28;20051;-60
2021/06/14 13:02:51;;;;;;;4.47;2.87;;;;;;;;;;5071084;28;20048;-60
2021/06/14 13:05:17;;;;;;;5.18;2.90;;;;;;;;;;5069914;28;20268;-61
2021/06/14 13:07:57;;;;;;;4.25;3.13;;;;;;;;;;5054889;28;20021;-62
2021/06/14 13:10:33;;;;;;;4.50;2.83;;;;;;;;;;5051631;28;20028;-61
2021/06/14 13:12:58;;;;;;;4.45;2.97;;;;;;;;;;5052023;28;20431;-60
2021/06/14 13:15:28;;;;;;;4.03;2.75;;;;;;;;;;5053390;28;20027;-63
2021/06/14 13:17:54;;;;;;;4.80;2.70;;;;;;;;;;5068505;28;20028;-64
2021/06/14 13:20:21;;;;;;;4.50;2.72;;;;;;;;;;5086558;28;20021;-63
2021/06/14 13:22:46;;;;;;;4.88;2.90;;;;;;;;;;5087584;28;20028;-62
2021/06/14 13:25:11;;;;;;;4.35;2.65;;;;;;;;;;5070196;28;20035;-65
2021/06/14 13:27:47;;;;;;;3.70;2.50;;;;;;;;;;5070595;28;20025;-62
2021/06/14 13:30:13;;;;;;;4.68;2.72;;;;;;;;;;5064389;28;20393;-61
2021/06/14 13:33:03;;;;;;;4.40;2.88;;;;;;;;;;5066313;22;20045;-83
2021/06/14 13:35:29;;;;;;;5.03;2.58;;;;;;;;;;5068422;28;20016;-81
2021/06/14 13:37:56;;;;;;;4.93;2.85;;;;;;;;;;5040808;28;20089;-82
2021/06/14 13:40:28;;;;;;;4.55;2.75;;;;;;;;;;5069374;28;20016;-81
2021/06/14 13:42:58;;;;;;;4.40;2.58;;;;;;;;;;5066206;28;20485;-83
2021/06/14 13:45:36;;;;;;;4.20;2.70;;;;;;;;;;5074694;28;20025;-81
2021/06/14 13:48:04;;;;;;;6.00;2.78;;;;;;;;;;5061007;28;20089;-82
2021/06/14 13:50:37;;;;;;;3.90;2.88;;;;;;;;;;5072631;28;20040;-82
2021/06/14 13:53:10;;;;;;;5.50;2.85;;;;;;;;;;5054714;28;20035;-84
2021/06/14 13:55:36;;;;;;;4.35;2.80;;;;;;;;;;5056309;28;20027;-81
2021/06/14 13:58:02;;;;;;;5.68;3.10;;;;;;;;;;5049699;28;20081;-82
2021/06/14 14:00:28;;;;;;;4.03;2.95;;;;;;;;;;5079510;28;20293;-82
2021/06/14 14:02:55;;;;;;;4.65;2.80;;;;;;;;;;5040003;28;20037;-83
2021/06/14 14:05:30;;;;;;;4.60;2.95;;;;;;;;;;5042442;28;20422;-82
2021/06/14 14:07:56;;;;;;;3.72;2.35;;;;;;;;;;5064419;28;20013;-82
2021/06/14 14:10:22;;;;;;;5.43;2.90;;;;;;;;;;5064281;28;20331;-82
2021/06/14 14:12:47;;;;;;;5.43;2.90;;;;;;;;;;5078096;28;20021;-83
2021/06/14 14:15:13;;;;;;;4.88;2.85;;;;;;;;;;5053427;28;20060;-82
2021/06/14 14:17:39;;;;;;;4.18;2.80;;;;;;;;;;5051496;28;20017;-82
2021/06/14 14:20:05;;;;;;;5.20;3.08;;;;;;;;;;5063075;28;20055;-83
2021/06/14 14:22:32;;;;;;;6.82;3.03;;;;;;;;;;5030401;28;20025;-83
2021/06/14 14:24:58;;;;;;;6.47;3.28;;;;;;;;;;5033617;28;20036;-83
2021/06/14 14:27:25;;;;;;;5.15;2.70;;;;;;;;;;5050756;28;20036;-83
2021/06/14 14:29:50;;;;;;;5.75;2.90;;;;;;;;;;5037590;28;20190;-83
2021/06/14 14:32:17;;;;;;;5.45;2.85;;;;;;;;;;5036841;28;20048;-84
2021/06/14 14:34:47;;;;;;;5.38;3.40;;;;;;;;;;5036703;28;20104;-84
2021/06/14 14:37:25;;;;;;;6.05;3.70;;;;;;;;;;5050349;28;20089;-82
2021/06/14 14:40:00;;;;;;;6.68;3.47;;;;;;;;;;5060518;28;20029;-81
2021/06/14 14:42:25;;;;;;;5.55;3.92;;;;;;;;;;5065707;28;20027;-82
2021/06/14 14:44:51;;;;;;;6.55;4.43;;;;;;;;;;5033276;28;21384;-82
2021/06/14 14:47:16;;;;;;;7.38;4.65;;;;;;;;;;5032952;28;20035;-83
2021/06/14 14:49:41;;;;;;;7.88;4.95;;;;;;;;;;5042167;28;20020;-82